Time;durP1;ratioP1;P1;durP2;ratioP2;P2;SDS_P1;SDS_P2;PMS_P1;PMS_P2;Temp;Humidity;BMP_temperature;BMP_pressure;BME280_temperature;BME280_humidity;BME280_pressure;Samples;Min_cycle;Max_cycle;Signal;HPM_P1;HPM_P2
2021/01/08 00:00:11;;;;;;;16.62;10.90;;;;;;;1.17;90.50;100369.84;1633289;86;21155;-77
2021/01/08 00:02:37;;;;;;;20.32;12.00;;;;;;;1.18;90.52;100371.97;1631731;86;21210;-77
2021/01/08 00:05:05;;;;;;;21.73;12.43;;;;;;;1.18;90.54;100369.42;1629964;86;21179;-77
2021/01/08 00:07:34;;;;;;;19.82;11.90;;;;;;;1.16;90.53;100373.21;1588907;86;21170;-77
2021/01/08 00:10:01;;;;;;;18.60;11.73;;;;;;;1.16;90.53;100371.08;1640019;86;21670;-77
2021/01/08 00:12:31;;;;;;;17.85;11.48;;;;;;;1.16;90.55;100369.39;1636854;86;21179;-77
2021/01/08 00:14:57;;;;;;;19.50;11.88;;;;;;;1.16;90.58;100364.30;1632225;86;21191;-77
2021/01/08 00:17:27;;;;;;;19.67;12.00;;;;;;;1.18;90.57;100369.42;1629095;86;21163;-77
2021/01/08 00:19:53;;;;;;;16.75;10.68;;;;;;;1.19;90.56;100369.45;1616481;86;21477;-77
2021/01/08 00:22:20;;;;;;;17.90;11.08;;;;;;;1.19;90.56;100365.63;1633743;86;20968;-77
2021/01/08 00:24:50;;;;;;;;;;;;;;;1.16;90.51;100364.72;1641512;86;21135;-77
2021/01/08 00:27:16;;;;;;;16.87;10.55;;;;;;;1.17;90.53;100369.84;1632474;86;21378;-77
2021/01/08 00:29:42;;;;;;;17.57;11.70;;;;;;;1.16;90.55;100363.44;1630057;86;21163;-77
2021/01/08 00:32:12;;;;;;;19.80;11.18;;;;;;;1.18;90.56;100363.91;1629639;86;21152;-77
2021/01/08 00:34:39;;;;;;;18.02;10.95;;;;;;;1.17;90.52;100372.80;1613802;87;21156;-77
2021/01/08 00:37:06;;;;;;;17.57;11.85;;;;;;;1.16;90.52;100365.98;1632748;86;21139;-77
2021/01/08 00:39:32;;;;;;;18.55;11.97;;;;;;;1.16;90.54;100365.57;1635018;86;21542;-77
2021/01/08 00:41:58;;;;;;;18.42;11.75;;;;;;;1.19;90.55;100372.41;1626075;86;21171;-77
2021/01/08 00:44:24;;;;;;;23.40;12.33;;;;;;;1.17;90.49;100368.98;1634161;86;21584;-77
2021/01/08 00:46:51;;;;;;;18.92;11.10;;;;;;;1.19;90.57;100367.31;1640540;86;21127;-77
2021/01/08 00:49:18;;;;;;;20.72;12.05;;;;;;;1.18;90.53;100365.19;1628245;86;21151;-77
2021/01/08 00:51:45;;;;;;;19.62;12.73;;;;;;;1.19;90.55;100367.31;1631814;86;21604;-77
2021/01/08 00:54:11;;;;;;;;;;;;;;;1.20;90.53;100366.48;1641068;86;21146;-77
2021/01/08 00:56:37;;;;;;;21.57;11.83;;;;;;;1.19;90.51;100366.91;1631290;86;20218;-77
2021/01/08 00:59:03;;;;;;;19.55;12.65;;;;;;;1.17;90.44;100371.52;1630834;86;21162;-77
2021/01/08 01:01:29;;;;;;;20.48;12.20;;;;;;;1.15;90.46;100371.50;1649570;86;21127;-77
2021/01/08 01:03:56;;;;;;;22.22;12.95;;;;;;;1.15;90.49;100378.28;1632948;86;21196;-77
2021/01/08 01:06:29;;;;;;;21.23;12.98;;;;;;;1.15;90.49;100377.00;1636503;86;21176;-77
2021/01/08 01:08:56;;;;;;;21.62;12.80;;;;;;;1.13;90.48;100378.25;1639095;86;21165;-77
2021/01/08 01:11:23;;;;;;;;;;;;;;;1.12;90.46;100374.41;1636497;86;21121;-77
2021/01/08 01:13:51;;;;;;;21.68;12.50;;;;;;;1.10;90.48;100373.09;1634429;86;20291;-77
2021/01/08 01:16:19;;;;;;;20.97;12.25;;;;;;;1.08;90.43;100381.54;1638537;86;21184;-77
2021/01/08 01:18:49;;;;;;;20.27;12.47;;;;;;;1.07;90.48;100378.55;1627118;86;21122;-77
2021/01/08 01:21:16;;;;;;;23.18;13.43;;;;;;;1.07;90.52;100378.13;1630627;86;21163;-77
2021/01/08 01:23:42;;;;;;;19.02;12.10;;;;;;;1.07;90.51;100374.31;1638126;86;21115;-77
2021/01/08 01:26:08;;;;;;;17.77;11.55;;;;;;;1.08;90.48;100377.72;1630206;86;21711;-77
2021/01/08 01:28:36;;;;;;;22.93;13.38;;;;;;;1.07;90.54;100378.55;1630483;86;21161;-77
2021/01/08 01:31:05;;;;;;;22.35;12.40;;;;;;;1.07;90.51;100373.05;1619567;86;20985;-77
2021/01/08 01:33:31;;;;;;;20.23;12.10;;;;;;;1.07;90.48;100374.31;1628140;86;21248;-77
2021/01/08 01:35:57;;;;;;;20.40;12.88;;;;;;;1.07;90.50;100376.00;1609121;88;21164;-77
2021/01/08 01:38:23;;;;;;;23.75;13.95;;;;;;;1.06;90.49;100375.15;1608575;87;21140;-77
2021/01/08 01:40:50;;;;;;;20.23;12.82;;;;;;;1.09;90.53;100371.80;1613820;88;21402;-77
2021/01/08 01:43:17;;;;;;;24.82;14.03;;;;;;;1.07;90.48;100369.64;1597622;87;21168;-77
2021/01/08 01:45:43;;;;;;;;;;;;;;;1.07;90.49;100370.50;1594315;88;21596;-77
2021/01/08 01:48:12;;;;;;;17.05;11.40;;;;;;;1.06;90.48;100368.78;1603006;88;20848;-77
2021/01/08 01:50:40;;;;;;;21.90;12.00;;;;;;;1.05;90.46;100367.48;1608584;88;21526;-77
2021/01/08 01:53:06;;;;;;;19.70;12.43;;;;;;;1.04;90.50;100366.63;1603788;87;21811;-77
2021/01/08 01:55:32;;;;;;;22.13;12.00;;;;;;;1.05;90.51;100369.61;1614441;87;21172;-77
2021/01/08 01:57:59;;;;;;;22.40;13.15;;;;;;;1.05;90.51;100367.48;1600259;87;21545;-77
2021/01/08 02:00:27;;;;;;;23.30;13.03;;;;;;;1.07;90.53;100362.00;1584662;89;21162;-77
2021/01/08 02:02:57;;;;;;;21.68;12.65;;;;;;;1.09;90.51;100367.98;1601361;88;21235;-77
2021/01/08 02:05:24;;;;;;;25.95;14.20;;;;;;;1.05;90.49;100365.80;1598715;88;21233;-77
2021/01/08 02:07:59;;;;;;;;;;;;;;;1.05;90.48;100366.20;1603644;88;21202;-77
2021/01/08 02:10:30;;;;;;;24.10;13.53;;;;;;;1.05;90.50;100368.75;1595218;88;20404;-77
2021/01/08 02:12:59;;;;;;;26.35;14.35;;;;;;;1.05;90.52;100370.89;1606293;87;21191;-77
2021/01/08 02:15:28;;;;;;;26.33;13.95;;;;;;;1.05;90.49;100364.94;1586498;88;21167;-77
2021/01/08 02:17:54;;;;;;;25.27;13.75;;;;;;;1.01;90.46;100364.05;1602912;88;21197;-77
2021/01/08 02:20:21;;;;;;;26.40;14.90;;;;;;;0.98;90.46;100361.45;1613074;88;25230;-77
2021/01/08 02:23:11;;;;;;;25.68;14.55;;;;;;;0.95;90.41;100359.70;1603833;87;21172;-77
2021/01/08 02:25:38;;;;;;;22.95;13.48;;;;;;;0.95;90.47;100360.98;1591376;87;21155;-77
2021/01/08 02:28:10;;;;;;;20.48;12.00;;;;;;;0.91;90.41;100355.80;1614555;88;21127;-77
2021/01/08 02:30:37;;;;;;;27.55;14.53;;;;;;;0.87;90.38;100357.43;1596792;87;21189;-77
2021/01/08 02:33:04;;;;;;;24.30;14.33;;;;;;;0.82;90.39;100359.03;1609193;87;21171;-77
2021/01/08 02:35:31;;;;;;;25.90;13.00;;;;;;;0.81;90.41;100349.67;1587682;86;21199;-77
2021/01/08 02:37:58;;;;;;;26.95;13.55;;;;;;;0.81;90.46;100352.63;1636110;86;21561;-77
2021/01/08 02:40:24;;;;;;;24.47;13.62;;;;;;;0.81;90.48;100353.91;1608801;87;21201;-77
2021/01/08 02:42:56;;;;;;;23.02;13.05;;;;;;;0.79;90.44;100347.52;1634530;86;22426;-77
2021/01/08 02:45:22;;;;;;;25.15;14.43;;;;;;;0.77;90.44;100348.31;1633726;86;21208;-77
2021/01/08 02:47:48;;;;;;;25.92;13.78;;;;;;;0.76;90.44;100355.09;1623858;86;21076;-77
2021/01/08 02:50:14;;;;;;;25.43;13.60;;;;;;;0.74;90.45;100354.20;1639430;86;21032;-77
2021/01/08 02:52:45;;;;;;;23.05;13.08;;;;;;;0.73;90.46;100351.22;1627562;86;21227;-77
2021/01/08 02:55:15;;;;;;;23.15;13.22;;;;;;;0.72;90.46;100353.73;1640693;86;21209;-77
2021/01/08 02:57:45;;;;;;;23.95;12.98;;;;;;;0.72;90.49;100352.05;1627652;86;21159;-77
2021/01/08 03:00:13;;;;;;;25.62;12.70;;;;;;;0.72;90.51;100347.37;1624059;86;21141;-77
2021/01/08 03:02:40;;;;;;;22.30;12.85;;;;;;;0.71;90.46;100349.05;1632252;86;21131;-77
2021/01/08 03:05:06;;;;;;;;;;;;;;;0.70;90.48;100344.80;1633523;86;21261;-77
2021/01/08 03:07:33;;;;;;;25.75;12.88;;;;;;;0.71;90.48;100352.02;1635075;86;21237;-77
2021/01/08 03:10:00;;;;;;;22.02;12.95;;;;;;;0.70;90.50;100352.42;1634164;86;21148;-77
2021/01/08 03:12:31;;;;;;;24.90;13.45;;;;;;;0.68;90.46;100351.54;1627876;86;21012;-77
2021/01/08 03:14:58;;;;;;;24.35;12.75;;;;;;;0.69;90.50;100346.89;1633694;86;21181;-77
2021/01/08 03:17:24;;;;;;;21.40;12.10;;;;;;;0.69;90.49;100347.30;1619004;86;21174;-77
2021/01/08 03:19:49;;;;;;;23.30;12.90;;;;;;;0.69;90.49;100343.49;1633746;86;21212;-77
2021/01/08 03:22:15;;;;;;;21.97;13.33;;;;;;;0.69;90.44;100349.85;1634561;86;20940;-77
2021/01/08 03:24:41;;;;;;;22.07;12.82;;;;;;;0.69;90.47;100346.03;1634006;86;20994;-77
2021/01/08 03:27:07;;;;;;;21.42;12.80;;;;;;;0.68;90.46;100348.99;1635240;86;21020;-77
2021/01/08 03:29:33;;;;;;;25.45;14.80;;;;;;;0.68;90.45;100349.41;1631423;86;20995;-77
2021/01/08 03:31:59;;;;;;;24.27;13.43;;;;;;;0.66;90.47;100346.83;1627626;86;21282;-77
2021/01/08 03:34:25;;;;;;;26.68;12.73;;;;;;;0.65;90.46;100345.12;1637295;85;21009;-77
2021/01/08 03:36:51;;;;;;;25.27;14.03;;;;;;;0.65;90.47;100342.57;1613138;88;21683;-77
2021/01/08 03:39:17;;;;;;;24.65;13.43;;;;;;;0.66;90.46;100347.69;1602034;88;20950;-77
2021/01/08 03:41:43;;;;;;;22.90;13.00;;;;;;;0.64;90.42;100349.77;1607549;88;21175;-77
2021/01/08 03:44:09;;;;;;;24.47;13.70;;;;;;;0.64;90.43;100349.77;1601781;87;21196;-77
2021/01/08 03:46:37;;;;;;;19.80;12.57;;;;;;;0.64;90.46;100350.62;1606230;88;21650;-77
2021/01/08 03:49:05;;;;;;;23.67;13.60;;;;;;;0.64;90.46;100343.40;1610065;88;21147;-77
2021/01/08 03:51:32;;;;;;;24.10;13.48;;;;;;;0.64;90.48;100345.53;1599587;87;21120;-77
2021/01/08 03:53:58;;;;;;;23.42;14.25;;;;;;;0.66;90.49;100345.56;1598143;88;21139;-77
2021/01/08 03:56:24;;;;;;;24.55;13.45;;;;;;;0.66;90.48;100343.88;1599418;88;21209;-77
2021/01/08 03:58:50;;;;;;;21.82;13.10;;;;;;;0.65;90.45;100351.06;1597254;87;20957;-77
2021/01/08 04:01:16;;;;;;;21.48;12.85;;;;;;;0.64;90.42;100344.67;1599044;88;21578;-77
2021/01/08 04:03:42;;;;;;;24.00;13.32;;;;;;;0.63;90.40;100348.05;1606721;87;21042;-76
2021/01/08 04:06:09;;;;;;;22.80;12.63;;;;;;;0.62;90.42;100352.27;1602842;87;21055;-76
2021/01/08 04:08:35;;;;;;;23.98;13.72;;;;;;;0.62;90.42;100352.69;1602846;88;21206;-76
2021/01/08 04:11:01;;;;;;;22.60;14.13;;;;;;;0.62;90.44;100359.91;1597108;87;21151;-76
2021/01/08 04:13:28;;;;;;;21.80;13.55;;;;;;;0.62;90.43;100352.27;1605332;88;21167;-76
2021/01/08 04:15:54;;;;;;;27.27;14.40;;;;;;;0.62;90.44;100354.82;1603149;88;21135;-76
2021/01/08 04:18:19;;;;;;;21.53;13.07;;;;;;;0.64;90.50;100358.25;1590606;89;20994;-76
2021/01/08 04:20:46;;;;;;;23.47;13.23;;;;;;;0.67;90.47;100358.73;1598020;88;21279;-76
2021/01/08 04:23:12;;;;;;;26.42;13.98;;;;;;;0.66;90.47;100357.87;1600729;88;21140;-76
2021/01/08 04:25:37;;;;;;;21.85;13.40;;;;;;;0.67;90.46;100351.09;1598411;88;21103;-76
2021/01/08 04:28:04;;;;;;;24.97;12.97;;;;;;;0.65;90.41;100351.48;1612028;88;21001;-77
2021/01/08 04:30:30;;;;;;;25.08;14.00;;;;;;;0.65;90.42;100351.06;1587025;88;21636;-77
2021/01/08 04:32:55;;;;;;;21.80;12.90;;;;;;;0.66;90.42;100350.65;1608753;88;21269;-77
2021/01/08 04:35:21;;;;;;;24.30;13.27;;;;;;;0.65;90.36;100345.97;1600526;87;21355;-77
2021/01/08 04:37:47;;;;;;;24.10;13.05;;;;;;;0.65;90.36;100345.97;1592819;88;21272;-77
2021/01/08 04:40:14;;;;;;;22.42;13.83;;;;;;;0.67;90.45;100352.36;1608015;88;20964;-77
2021/01/08 04:42:40;;;;;;;20.55;13.28;;;;;;;0.65;90.42;100347.25;1610461;88;21235;-77
2021/01/08 04:45:08;;;;;;;21.68;13.15;;;;;;;0.65;90.41;100348.94;1605133;88;21927;-77
2021/01/08 04:47:37;;;;;;;21.97;12.88;;;;;;;0.63;90.38;100346.36;1607103;88;21166;-77
2021/01/08 04:50:05;;;;;;;24.47;13.25;;;;;;;0.62;90.35;100345.05;1603309;88;21156;-77
2021/01/08 04:52:33;;;;;;;22.05;13.32;;;;;;;0.61;90.38;100349.28;1603516;88;21139;-78
2021/01/08 04:55:03;;;;;;;23.00;13.50;;;;;;;0.60;90.34;100345.02;1592392;88;21135;-77
2021/01/08 04:57:33;;;;;;;22.58;13.05;;;;;;;0.59;90.35;100346.27;1606958;88;21852;-77
2021/01/08 04:59:59;;;;;;;20.88;12.20;;;;;;;0.59;90.37;100348.81;1632672;87;21170;-77
2021/01/08 05:02:25;;;;;;;21.73;12.70;;;;;;;0.59;90.38;100349.67;1602809;87;26616;-77
2021/01/08 05:04:52;;;;;;;25.05;14.23;;;;;;;0.59;90.36;100357.72;1614546;87;21125;-77
2021/01/08 05:07:18;;;;;;;;;;;;;;;0.58;90.36;100354.31;1616385;87;21131;-78
2021/01/08 05:09:44;;;;;;;23.30;13.10;;;;;;;0.59;90.40;100352.63;1637936;86;21133;-77
2021/01/08 05:12:10;;;;;;;22.87;13.60;;;;;;;0.59;90.37;100350.08;1624418;87;20958;-77
2021/01/08 05:14:37;;;;;;;21.93;12.98;;;;;;;0.58;90.40;100349.64;1619118;87;21564;-77
2021/01/08 05:17:03;;;;;;;21.17;13.28;;;;;;;0.60;90.41;100355.61;1606980;87;21151;-77
2021/01/08 05:19:29;;;;;;;20.95;12.73;;;;;;;0.59;90.41;100352.21;1623985;87;20954;-77
2021/01/08 05:21:55;;;;;;;23.15;13.75;;;;;;;0.59;90.39;100352.63;1622498;87;21997;-77
2021/01/08 05:24:23;;;;;;;27.37;15.05;;;;;;;0.58;90.39;100353.45;1608967;87;21159;-77
2021/01/08 05:26:50;;;;;;;24.67;15.23;;;;;;;0.58;90.41;100353.04;1616725;87;21144;-77
2021/01/08 05:29:16;;;;;;;27.48;14.87;;;;;;;0.58;90.38;100353.45;1593662;88;21164;-77
2021/01/08 05:31:43;;;;;;;28.47;15.38;;;;;;;0.59;90.39;100354.75;1619504;87;21172;-77
2021/01/08 05:34:09;;;;;;;28.47;15.28;;;;;;;0.60;90.44;100347.98;1615509;87;21398;-77
2021/01/08 05:36:36;;;;;;;25.97;15.75;;;;;;;0.61;90.42;100348.42;1627134;86;21217;-77
2021/01/08 05:39:05;;;;;;;30.05;15.93;;;;;;;0.60;90.36;100346.71;1622064;86;21145;-77
2021/01/08 05:41:32;;;;;;;24.72;14.80;;;;;;;0.59;90.37;100351.35;1617160;86;21688;-77
2021/01/08 05:44:00;;;;;;;25.90;14.95;;;;;;;0.58;90.36;100355.59;1665362;85;21542;-77
2021/01/08 05:46:34;;;;;;;25.50;15.35;;;;;;;0.59;90.37;100357.30;1645550;86;21898;-77
2021/01/08 05:49:02;;;;;;;29.25;15.83;;;;;;;0.59;90.37;100356.44;1644220;86;21182;-77
2021/01/08 05:51:35;;;;;;;26.70;15.45;;;;;;;0.60;90.41;100355.61;1618296;86;21137;-77
2021/01/08 05:54:02;;;;;;;27.75;15.75;;;;;;;0.62;90.44;100362.86;1658771;85;22011;-77
2021/01/08 05:56:37;;;;;;;32.00;16.23;;;;;;;0.63;90.43;100365.86;1622518;87;21163;-77
2021/01/08 05:59:07;;;;;;;30.43;15.53;;;;;;;0.64;90.40;100365.03;1640553;86;22046;-77
2021/01/08 06:01:35;;;;;;;34.75;17.98;;;;;;;0.65;90.41;100361.23;1638540;86;21698;-77
2021/01/08 06:04:02;;;;;;;33.75;17.90;;;;;;;0.66;90.39;100359.55;1630010;86;21162;-77
2021/01/08 06:06:40;;;;;;;40.23;19.15;;;;;;;0.68;90.39;100364.67;1653028;85;21628;-77
2021/01/08 06:09:07;;;;;;;33.25;17.75;;;;;;;0.68;90.35;100365.95;1649049;85;21154;-77
2021/01/08 06:11:36;;;;;;;32.78;18.17;;;;;;;0.66;90.34;100366.77;1641793;86;21655;-77
2021/01/08 06:14:03;;;;;;;30.95;17.15;;;;;;;0.68;90.40;100372.30;1644223;86;21179;-77
2021/01/08 06:16:39;;;;;;;37.25;19.52;;;;;;;0.66;90.34;100369.73;1646930;86;21532;-77
2021/01/08 06:19:06;;;;;;;41.92;20.92;;;;;;;0.66;90.36;100371.86;1629188;86;21158;-77
2021/01/08 06:21:42;;;;;;;36.98;18.92;;;;;;;0.60;90.36;100361.98;1642203;86;21120;-77
2021/01/08 06:24:25;;;;;;;36.68;19.95;;;;;;;0.68;90.39;100379.94;1647773;86;21230;-76
2021/01/08 06:26:52;;;;;;;35.92;19.65;;;;;;;0.67;90.33;100384.17;1646579;86;21166;-78
2021/01/08 06:29:23;;;;;;;35.15;18.92;;;;;;;0.68;90.39;100388.84;1621868;87;21163;-77
2021/01/08 06:32:00;;;;;;;32.53;18.65;;;;;;;0.68;90.35;100390.12;1644984;86;21857;-77
2021/01/08 06:34:29;;;;;;;35.50;18.55;;;;;;;0.68;90.38;100393.52;1635476;86;21131;-77
2021/01/08 06:37:08;;;;;;;36.20;18.82;;;;;;;0.68;90.38;100396.48;1631685;86;21250;-77
2021/01/08 06:39:43;;;;;;;32.05;17.25;;;;;;;0.70;90.39;100401.19;1628032;86;21159;-77
2021/01/08 06:42:09;;;;;;;33.70;18.45;;;;;;;0.69;90.40;100403.28;1630326;86;21155;-77
2021/01/08 06:44:35;;;;;;;34.58;17.90;;;;;;;0.70;90.38;100406.27;1648675;86;21212;-77
2021/01/08 06:47:05;;;;;;;34.88;18.57;;;;;;;0.69;90.37;100408.38;1646918;86;21591;-77
2021/01/08 06:49:33;;;;;;;32.50;18.90;;;;;;;0.68;90.35;100411.33;1647107;86;21929;-77
2021/01/08 06:52:00;;;;;;;34.53;18.50;;;;;;;0.68;90.37;100414.29;1639674;86;21118;-77
2021/01/08 06:54:28;;;;;;;30.82;17.60;;;;;;;0.69;90.38;100416.86;1631542;86;21170;-78
2021/01/08 06:57:00;;;;;;;33.83;18.20;;;;;;;0.68;90.40;100416.83;1647218;86;21190;-77
2021/01/08 06:59:35;;;;;;;37.17;19.05;;;;;;;0.68;90.34;100422.78;1647449;86;21538;-77
2021/01/08 07:18:48;;;;;;;49.37;22.80;;;;;;;0.66;90.43;100435.47;1615318;86;21188;-78
2021/01/08 07:21:23;;;;;;;38.78;20.23;;;;;;;0.65;90.41;100436.30;1633454;86;29656;-78
2021/01/08 07:23:52;;;;;;;42.67;20.73;;;;;;;0.66;90.46;100439.29;1607752;86;21270;-78
2021/01/08 07:26:19;;;;;;;48.50;23.47;;;;;;;0.65;90.46;100440.11;1650505;86;22494;-76
2021/01/08 07:28:51;;;;;;;42.33;21.05;;;;;;;0.66;90.45;100448.61;1614803;87;21568;-76
2021/01/08 07:31:25;;;;;;;52.33;22.98;;;;;;;0.65;90.46;100446.48;1639750;86;21291;-76
2021/01/08 07:33:52;;;;;;;55.45;22.37;;;;;;;0.66;90.42;100448.20;1638464;86;21667;-76
2021/01/08 07:36:24;;;;;;;53.95;22.30;;;;;;;0.66;90.42;100452.02;1638971;86;26983;-75
2021/01/08 07:38:50;;;;;;;53.25;22.02;;;;;;;0.68;90.44;100458.41;1613351;87;21150;-75
2021/01/08 07:41:32;;;;;;;46.08;21.23;;;;;;;0.68;90.41;100457.13;1611368;87;21523;-75
2021/01/08 07:43:58;;;;;;;47.17;22.42;;;;;;;0.70;90.41;100459.70;1623784;86;21895;-76
2021/01/08 07:46:34;;;;;;;39.35;19.07;;;;;;;0.73;90.45;100461.05;1613835;87;21070;-76
2021/01/08 07:49:02;;;;;;;39.17;19.83;;;;;;;0.73;90.42;100456.81;1611098;87;21166;-76
2021/01/08 07:51:46;;;;;;;43.65;21.00;;;;;;;0.74;90.40;100458.53;1613405;87;22007;-76
2021/01/08 07:54:16;;;;;;;42.62;20.80;;;;;;;0.75;90.42;100463.21;1616274;87;21199;-76
2021/01/08 07:57:05;;;;;;;48.23;21.77;;;;;;;0.74;90.41;100465.31;1615523;87;21221;-76
2021/01/08 07:59:31;;;;;;;46.60;22.15;;;;;;;0.76;90.40;100469.61;1609977;87;21207;-76
2021/01/08 08:01:58;;;;;;;47.38;22.32;;;;;;;0.76;90.39;100468.75;1553824;88;22051;-76
2021/01/08 08:04:27;;;;;;;45.95;22.48;;;;;;;0.78;90.39;100473.45;1608428;87;21253;-76
2021/01/08 08:06:55;;;;;;;41.75;20.92;;;;;;;0.79;90.41;100476.03;1608960;87;21235;-76
2021/01/08 08:09:22;;;;;;;45.05;20.92;;;;;;;0.79;90.37;100477.30;1605327;87;21206;-76
2021/01/08 08:11:48;;;;;;;38.13;20.37;;;;;;;0.81;90.41;100478.61;1610044;87;21227;-76
2021/01/08 08:14:17;;;;;;;43.13;21.85;;;;;;;0.81;90.41;100476.92;1609542;87;21219;-76
2021/01/08 08:16:44;;;;;;;40.92;21.62;;;;;;;0.83;90.41;100475.27;1606306;88;21745;-76
2021/01/08 08:19:15;;;;;;;42.93;20.72;;;;;;;0.85;90.38;100485.07;1619727;87;21782;-76
2021/01/08 08:21:49;;;;;;;41.77;20.92;;;;;;;0.86;90.35;100492.30;1610752;87;21178;-76
2021/01/08 08:24:17;;;;;;;42.75;20.80;;;;;;;0.87;90.37;100488.51;1614465;87;21179;-76
2021/01/08 08:26:45;;;;;;;40.45;20.50;;;;;;;0.88;90.38;100494.05;1613666;87;21152;-76
2021/01/08 08:29:14;;;;;;;46.05;21.42;;;;;;;0.89;90.39;100491.95;1589464;87;21159;-76
2021/01/08 08:31:46;;;;;;;43.95;22.07;;;;;;;0.92;90.38;100493.70;1612810;87;21131;-76
2021/01/08 08:34:15;;;;;;;43.38;22.30;;;;;;;0.93;90.38;100489.05;1608472;87;22831;-77
2021/01/08 08:36:42;;;;;;;43.05;20.17;;;;;;;0.94;90.37;100492.05;1619152;86;21189;-76
2021/01/08 08:39:15;;;;;;;40.52;20.37;;;;;;;0.95;90.38;100492.48;1631301;86;21256;-76
2021/01/08 08:41:45;;;;;;;34.78;18.35;;;;;;;0.97;90.37;100496.78;1636782;86;21162;-76
2021/01/08 08:44:17;;;;;;;37.55;18.27;;;;;;;0.98;90.38;100495.09;1634770;86;21115;-77
2021/01/08 08:46:55;;;;;;;39.00;20.50;;;;;;;0.99;90.37;100500.22;1635674;86;21168;-76
2021/01/08 08:49:35;;;;;;;32.95;17.73;;;;;;;1.03;90.41;100497.33;1630742;86;21171;-76
2021/01/08 08:51:59;;;;;;;32.58;18.07;;;;;;;1.06;90.39;100502.45;1619439;86;21147;-76
2021/01/08 08:54:25;;;;;;;33.65;17.52;;;;;;;1.08;90.36;100498.66;1637124;86;21244;-76
2021/01/08 08:56:57;;;;;;;35.08;18.98;;;;;;;1.08;90.34;100497.39;1623911;86;21132;-76
2021/01/08 08:59:43;;;;;;;34.50;18.30;;;;;;;1.09;90.33;100496.14;1621688;86;21245;-76
2021/01/08 09:02:25;;;;;;;37.85;20.23;;;;;;;1.10;90.31;100497.00;1649079;85;21240;-77
2021/01/08 09:05:04;;;;;;;37.85;19.75;;;;;;;1.12;90.34;100496.62;1649280;85;21205;-76
2021/01/08 09:07:47;;;;;;;37.05;19.00;;;;;;;1.15;90.39;100502.64;1648206;85;21264;-76
2021/01/08 09:10:30;;;;;;;33.10;19.27;;;;;;;1.17;90.38;100502.25;1635253;86;21219;-77
2021/01/08 09:13:15;;;;;;;30.12;18.25;;;;;;;1.19;90.36;100502.28;1629791;86;21830;-76
2021/01/08 09:15:55;;;;;;;39.15;20.50;;;;;;;1.21;90.39;100501.91;1607692;86;21210;-77
2021/01/08 09:18:46;;;;;;;38.08;21.33;;;;;;;1.24;90.38;100503.23;1619473;86;21186;-77
2021/01/08 09:21:25;;;;;;;41.50;21.55;;;;;;;1.26;90.37;100502.44;1652464;85;21456;-77
2021/01/08 09:23:54;;;;;;;48.05;23.40;;;;;;;1.27;90.34;100501.61;1636593;86;21143;-76
2021/01/08 09:26:21;;;;;;;43.78;21.60;;;;;;;1.29;90.36;100498.67;1652827;85;21573;-77
2021/01/08 09:28:53;;;;;;;;;;;;;;;1.32;90.35;100497.47;1624330;86;21150;-78
2021/01/08 09:31:38;;;;;;;46.75;23.00;;;;;;;1.33;90.33;100499.59;1651590;85;32675;-77
2021/01/08 09:34:04;;;;;;;55.83;25.37;;;;;;;1.35;90.31;100500.48;1634247;86;21176;-76
2021/01/08 09:36:35;;;;;;;57.48;27.02;;;;;;;1.35;90.28;100504.31;1650156;84;21756;-76
2021/01/08 09:39:08;;;;;;;52.60;25.25;;;;;;;1.37;90.28;100499.24;1685176;83;21134;-77
2021/01/08 09:41:37;;;;;;;44.88;23.50;;;;;;;1.39;90.33;100496.31;1686849;83;21147;-76
2021/01/08 09:44:06;;;;;;;42.65;21.85;;;;;;;1.44;90.35;100495.57;1686738;83;21116;-78
2021/01/08 09:46:56;;;;;;;42.55;23.32;;;;;;;1.47;90.37;100493.49;1687390;83;21127;-78
2021/01/08 09:49:26;;;;;;;44.20;22.90;;;;;;;1.50;90.33;100494.83;1682794;83;21090;-77
2021/01/08 09:52:02;;;;;;;40.25;20.92;;;;;;;1.53;90.31;100497.43;1684059;83;21176;-76
2021/01/08 09:54:51;;;;;;;37.58;21.50;;;;;;;1.56;90.32;100498.77;1685085;84;21154;-77
2021/01/08 09:57:35;;;;;;;37.40;21.33;;;;;;;1.57;90.29;100494.08;1682535;84;21904;-77
2021/01/08 10:00:07;;;;;;;56.18;23.10;;;;;;;1.60;90.32;100494.13;1683992;84;21102;-77
2021/01/08 10:02:48;;;;;;;38.48;21.93;;;;;;;1.63;90.33;100486.55;1677869;85;21901;-77
2021/01/08 10:05:26;;;;;;;40.83;20.52;;;;;;;1.67;90.31;100487.05;1686595;84;21186;-77
2021/01/08 10:07:53;;;;;;;36.83;20.27;;;;;;;1.69;90.25;100483.25;1687445;84;21115;-77
2021/01/08 10:10:31;;;;;;;39.38;21.27;;;;;;;1.70;90.26;100480.73;1689735;84;21131;-77
2021/01/08 10:12:59;;;;;;;39.23;21.82;;;;;;;1.74;90.26;100482.50;1695047;84;21126;-77
2021/01/08 10:15:39;;;;;;;42.58;20.85;;;;;;;1.77;90.24;100486.80;1685201;83;21601;-77
2021/01/08 10:18:19;;;;;;;36.47;20.37;;;;;;;1.79;90.27;100483.44;1649139;85;21253;-77
2021/01/08 10:20:58;;;;;;;36.17;21.17;;;;;;;1.83;90.23;100489.45;1682503;84;21156;-76
2021/01/08 10:23:26;;;;;;;37.65;21.82;;;;;;;1.84;90.24;100484.37;1666721;84;21217;-76
2021/01/08 10:25:54;;;;;;;38.78;22.17;;;;;;;1.85;90.20;100481.00;1683846;84;21144;-76
2021/01/08 10:28:25;;;;;;;36.83;20.92;;;;;;;1.86;90.18;100486.53;1683912;84;21122;-76
2021/01/08 10:30:55;;;;;;;43.83;23.22;;;;;;;1.88;90.20;100487.84;1688856;83;21163;-76
2021/01/08 10:33:24;;;;;;;44.48;22.15;;;;;;;1.88;90.13;100481.05;1684205;84;21155;-76
2021/01/08 10:35:55;;;;;;;36.80;21.90;;;;;;;1.90;90.16;100478.11;1664144;85;21014;-76
2021/01/08 10:38:23;;;;;;;41.35;23.20;;;;;;;1.92;90.10;100480.27;1689969;83;21128;-76
2021/01/08 10:40:49;;;;;;;39.08;21.77;;;;;;;1.93;90.09;100476.03;1690269;83;21150;-76
2021/01/08 10:43:15;;;;;;;43.60;23.00;;;;;;;1.96;90.17;100476.08;1693182;83;21223;-76
2021/01/08 10:45:42;;;;;;;40.60;22.75;;;;;;;2.01;90.21;100474.87;1703502;83;21134;-76
2021/01/08 10:48:08;;;;;;;35.28;22.13;;;;;;;2.00;90.11;100471.47;1691624;83;21129;-76
2021/01/08 10:50:35;;;;;;;36.70;21.07;;;;;;;2.01;90.08;100473.19;1654099;84;21615;-76
2021/01/08 10:53:02;;;;;;;37.17;20.08;;;;;;;2.04;90.09;100476.20;1674194;84;21105;-76
2021/01/08 10:55:29;;;;;;;37.67;20.60;;;;;;;2.04;90.08;100471.11;1690668;83;21619;-76
2021/01/08 10:57:56;;;;;;;37.60;21.12;;;;;;;2.09;90.14;100470.73;1690487;84;21154;-76
2021/01/08 11:00:22;;;;;;;36.28;20.17;;;;;;;2.12;90.12;100478.43;1693068;83;21130;-76
2021/01/08 11:02:48;;;;;;;;;;;;;;;2.13;90.15;100475.91;1698787;83;21099;-76
2021/01/08 11:05:15;;;;;;;35.83;19.40;;;;;;;2.16;90.11;100471.27;1693659;83;20197;-76
2021/01/08 11:07:41;;;;;;;39.53;22.13;;;;;;;2.17;90.10;100475.53;1690242;83;21891;-77
2021/01/08 11:10:08;;;;;;;36.20;20.68;;;;;;;2.17;90.14;100480.64;1689334;84;21178;-76
2021/01/08 11:12:35;;;;;;;38.25;21.82;;;;;;;2.13;90.00;100474.63;1666536;84;21170;-77
2021/01/08 11:15:04;;;;;;;35.13;18.75;;;;;;;2.12;89.97;100483.11;1690865;83;21207;-78
2021/01/08 11:17:30;;;;;;;36.40;21.05;;;;;;;2.11;89.96;100480.54;1697808;83;21477;-78
2021/01/08 11:19:57;;;;;;;36.00;21.05;;;;;;;2.10;89.94;100480.09;1696692;83;21264;-77
2021/01/08 11:22:28;;;;;;;36.93;21.12;;;;;;;2.10;90.02;100474.58;1695631;83;21139;-77
2021/01/08 11:24:54;;;;;;;35.73;21.05;;;;;;;2.11;90.02;100477.57;1700970;83;21133;-77
2021/01/08 11:27:21;;;;;;;39.35;22.65;;;;;;;2.11;90.05;100471.61;1666353;84;21114;-77
2021/01/08 11:29:47;;;;;;;40.78;22.02;;;;;;;2.11;90.01;100474.16;1690729;83;21110;-77
2021/01/08 11:32:14;;;;;;;36.45;22.42;;;;;;;2.13;90.08;100471.22;1690264;84;21243;-77
2021/01/08 11:34:40;;;;;;;40.98;21.17;;;;;;;2.16;90.05;100473.41;1659659;83;21174;-77
2021/01/08 11:37:08;;;;;;;39.70;22.40;;;;;;;2.16;90.10;100469.58;1685152;83;21138;-77
2021/01/08 11:39:34;;;;;;;39.00;22.80;;;;;;;2.22;90.15;100468.39;1691971;83;21142;-77
2021/01/08 11:42:00;;;;;;;36.53;22.37;;;;;;;2.23;90.07;100465.43;1688160;83;21126;-77
2021/01/08 11:44:26;;;;;;;35.52;20.85;;;;;;;2.23;90.06;100468.84;1694645;83;21247;-77